Caguas, PR

3:40 PM AST en Septiembre 18, 2014 (GMT -0400)
Cañabon | Change Station
CLOSE
Current Station
Estación meteorológica personal
Location: Caguas, CAGUAS
Altura: 263 ft
Estaciones meteorológicas cercanas

Alt 263 ft 18.24 °N, 66.06 °W | Updated 7 minutes ago

Scattered Clouds
Nubes dispersas
87.2 ° F
Sensación térmica 97 ° F
N
0.0
Viento Variable Viento desde NE

Hoy
Alta -- | Baja -- ° F
--% Posibilidad de precipitaciones
Ayer
Alta -- | Baja -- ° F
Precip. -- pul
6:12 AM 6:23 PM
Creciente menguante, 25% visible
Presión 29.89 pul
Visibilidad 10.0 Millas
Nubes Nubes dispersas 2500 ft
Índice de calor 97 ° F
Punto de rocío 75 ° F
Humedad 67%
Precipitaciones 0.00 pul
Espesor de la nieve No disponible.
UV 5 de una escala de 12
Polen No disponible.
Calidad del aire No disponible.
Flu Activity No disponible.
METAR TJSJ 181856Z 04012KT 10SM SCT025 31/26 A2990 RMK AO2 SLP122 CB DSNT SW SHRA DSNT S SW T03110256

More Conditions Fewer Conditions

Presión 29.89 pul
Visibilidad 10.0 Millas
Nubes Nubes dispersas 2500 ft
Índice de calor 97 ° F
Punto de rocío 75 ° F
Humedad 67%
Precipitaciones 0.00 pul
Espesor de la nieve No disponible.
UV 5 de una escala de 12
Polen No disponible.
Calidad del aire No disponible.
Flu Activity No disponible.
METAR TJSJ 181856Z 04012KT 10SM SCT025 31/26 A2990 RMK AO2 SLP122 CB DSNT SW SHRA DSNT S SW T03110256

More Conditions Fewer Conditions

10-Day Weather Forecast

Almanac

Astronomía

Sep. 18, 2014 Salida Puesta
Hora real 6:12 AM AST 6:23 PM AST
Crepúsculo civil 5:50 AM AST 6:45 PM AST
Crepúsculo náutico 5:25 AM AST 7:10 PM AST
Crepúsculo astronómico 4:59 AM AST 7:36 PM AST
Luna 1:33 AM AST 2:42 PM AST
Horas de luz 12h 54m
Horas de luz
12h 11m
Tomorrow will be 1m 3s shorter.
Creciente menguante, 25% of the Moon is Illuminated
Hoy
Creciente menguante
Sep 24
Nueva
Oct 1
Cuarto creciente
Oct 8
Luna llena
Oct 15
Cuarto menguante

Community

WunderPhotos

Upload Photos

1,754,421 ¡fotos cargadas!

WunderBlogs® & News

By Dr. Jeff Masters
Director of Meteorology, Weather Underground
By Kari Strenfel
Meteorologist, Weather Underground
By Christopher C. Burt
Weather Historian, Weather Underground
September 18, 2014
September 18, 2014
September 18, 2014

Nearby

Calidad del aire

Not available.

Grosos de nieve

Estación Profundido Altura
No tenemos constancia de nieve nueva.

Actividad de terremotos

Ciudad Distance Mag. Tiempo y dato
No hay informes recientes de la actividad sísmica.
Magnitud mínima muestra es 2,5.

Temperaturas de aguas costeras

Lugar Temperatura
San Juan, PR 86.0 ° F
Mayaguez, PR 87.1 ° F
Esperanza, PR 86.0 ° F

Estaciones meteorológicas cercanas